sensor_id;sensor_type;location;lat;lon;timestamp;pressure;altitude;pressure_sealevel;temperature;humidity
62847;BME280;49477;35.676;139.586;2023-04-26T00:02:13;100430.10;;;23.05;32.42
62847;BME280;49477;35.676;139.586;2023-04-26T00:04:43;100423.33;;;22.85;32.27
62847;BME280;49477;35.676;139.586;2023-04-26T00:07:12;100420.35;;;23.17;32.11
62847;BME280;49477;35.676;139.586;2023-04-26T00:09:42;100414.33;;;22.95;32.04
62847;BME280;49477;35.676;139.586;2023-04-26T00:12:11;100406.13;;;23.01;31.85
62847;BME280;49477;35.676;139.586;2023-04-26T00:14:41;100407.41;;;23.02;32.23
62847;BME280;49477;35.676;139.586;2023-04-26T00:17:10;100411.42;;;23.04;31.94
62847;BME280;49477;35.676;139.586;2023-04-26T00:19:40;100416.63;;;22.79;32.34
62847;BME280;49477;35.676;139.586;2023-04-26T00:22:10;100410.40;;;23.31;32.75
62847;BME280;49477;35.676;139.586;2023-04-26T00:24:39;100393.36;;;23.35;32.57
62847;BME280;49477;35.676;139.586;2023-04-26T00:27:09;100382.09;;;23.11;32.50
62847;BME280;49477;35.676;139.586;2023-04-26T00:29:38;100363.31;;;23.14;32.38
62847;BME280;49477;35.676;139.586;2023-04-26T00:32:08;100355.08;;;23.14;32.38
62847;BME280;49477;35.676;139.586;2023-04-26T00:34:38;100351.30;;;23.15;32.42
62847;BME280;49477;35.676;139.586;2023-04-26T00:37:06;100340.53;;;23.18;32.42
62847;BME280;49477;35.676;139.586;2023-04-26T00:39:36;100330.90;;;23.19;32.31
62847;BME280;49477;35.676;139.586;2023-04-26T00:42:06;100323.60;;;23.19;32.39
62847;BME280;49477;35.676;139.586;2023-04-26T00:44:35;100318.84;;;23.20;32.52
62847;BME280;49477;35.676;139.586;2023-04-26T00:47:04;100318.88;;;22.99;32.36
62847;BME280;49477;35.676;139.586;2023-04-26T00:49:34;100314.00;;;22.99;32.34
62847;BME280;49477;35.676;139.586;2023-04-26T00:52:04;100310.44;;;23.23;32.29
62847;BME280;49477;35.676;139.586;2023-04-26T00:54:33;100306.55;;;23.05;32.15
62847;BME280;49477;35.676;139.586;2023-04-26T00:57:03;100299.97;;;23.06;32.42
62847;BME280;49477;35.676;139.586;2023-04-26T00:59:32;100299.98;;;23.10;33.41
62847;BME280;49477;35.676;139.586;2023-04-26T01:02:02;100298.37;;;23.36;33.95
62847;BME280;49477;35.676;139.586;2023-04-26T01:04:32;100293.84;;;23.40;34.11
62847;BME280;49477;35.676;139.586;2023-04-26T01:07:02;100299.29;;;23.41;34.13
62847;BME280;49477;35.676;139.586;2023-04-26T01:09:32;100300.21;;;23.18;33.95
62847;BME280;49477;35.676;139.586;2023-04-26T01:12:01;100298.19;;;23.20;33.74
62847;BME280;49477;35.676;139.586;2023-04-26T01:14:32;100294.52;;;23.22;33.97
62847;BME280;49477;35.676;139.586;2023-04-26T01:17:02;100286.33;;;23.44;33.83
62847;BME280;49477;35.676;139.586;2023-04-26T01:19:32;100284.62;;;23.22;33.84
62847;BME280;49477;35.676;139.586;2023-04-26T01:22:01;100282.54;;;23.48;33.64
62847;BME280;49477;35.676;139.586;2023-04-26T01:24:31;100269.08;;;23.27;33.64
62847;BME280;49477;35.676;139.586;2023-04-26T01:27:02;100252.77;;;23.54;33.32
62847;BME280;49477;35.676;139.586;2023-04-26T01:29:32;100238.63;;;23.33;33.54
62847;BME280;49477;35.676;139.586;2023-04-26T01:32:01;100225.78;;;23.60;33.32
62847;BME280;49477;35.676;139.586;2023-04-26T01:34:31;100223.76;;;23.41;33.50
62847;BME280;49477;35.676;139.586;2023-04-26T01:37:00;100214.27;;;23.46;33.57
62847;BME280;49477;35.676;139.586;2023-04-26T01:39:29;100206.39;;;23.49;33.63
62847;BME280;49477;35.676;139.586;2023-04-26T01:41:58;100204.18;;;23.54;33.57
62847;BME280;49477;35.676;139.586;2023-04-26T01:44:28;100194.13;;;23.57;33.51
62847;BME280;49477;35.676;139.586;2023-04-26T01:46:57;100196.94;;;23.88;33.84
62847;BME280;49477;35.676;139.586;2023-04-26T01:49:26;100191.79;;;23.73;34.20
62847;BME280;49477;35.676;139.586;2023-04-26T01:51:56;100177.63;;;23.75;34.10
62847;BME280;49477;35.676;139.586;2023-04-26T01:54:25;100169.89;;;23.80;34.01
62847;BME280;49477;35.676;139.586;2023-04-26T01:56:54;100161.42;;;23.81;34.08
62847;BME280;49477;35.676;139.586;2023-04-26T01:59:24;100148.84;;;24.04;34.02
62847;BME280;49477;35.676;139.586;2023-04-26T02:01:53;100142.79;;;23.82;34.18
62847;BME280;49477;35.676;139.586;2023-04-26T02:04:23;100140.30;;;24.03;34.10
62847;BME280;49477;35.676;139.586;2023-04-26T02:06:52;100132.81;;;23.80;34.23
62847;BME280;49477;35.676;139.586;2023-04-26T02:09:22;100125.82;;;23.82;34.03
62847;BME280;49477;35.676;139.586;2023-04-26T02:11:51;100114.36;;;23.87;33.89
62847;BME280;49477;35.676;139.586;2023-04-26T02:14:21;100106.45;;;23.91;33.82
62847;BME280;49477;35.676;139.586;2023-04-26T02:16:51;100101.36;;;23.90;33.96
62847;BME280;49477;35.676;139.586;2023-04-26T02:19:20;100096.93;;;23.92;33.77
62847;BME280;49477;35.676;139.586;2023-04-26T02:21:52;100088.68;;;23.91;33.86
62847;BME280;49477;35.676;139.586;2023-04-26T02:24:22;100084.75;;;23.93;33.76
62847;BME280;49477;35.676;139.586;2023-04-26T02:26:51;100067.97;;;23.94;33.82
62847;BME280;49477;35.676;139.586;2023-04-26T02:29:21;100062.81;;;23.95;33.83
62847;BME280;49477;35.676;139.586;2023-04-26T02:31:50;100071.91;;;23.92;33.66
62847;BME280;49477;35.676;139.586;2023-04-26T02:34:20;100057.69;;;23.99;33.81
62847;BME280;49477;35.676;139.586;2023-04-26T02:36:49;100049.06;;;23.80;33.86
62847;BME280;49477;35.676;139.586;2023-04-26T02:39:19;100050.68;;;24.06;33.90
62847;BME280;49477;35.676;139.586;2023-04-26T02:41:48;100044.21;;;24.09;35.73
62847;BME280;49477;35.676;139.586;2023-04-26T02:44:18;100041.16;;;24.17;36.32
62847;BME280;49477;35.676;139.586;2023-04-26T02:46:47;100034.19;;;24.22;35.25
62847;BME280;49477;35.676;139.586;2023-04-26T02:49:17;100014.58;;;24.11;35.30
62847;BME280;49477;35.676;139.586;2023-04-26T02:51:46;99998.10;;;24.38;33.77
62847;BME280;49477;35.676;139.586;2023-04-26T02:54:16;99993.27;;;24.20;33.93
62847;BME280;49477;35.676;139.586;2023-04-26T02:56:45;99990.87;;;24.24;33.90
62847;BME280;49477;35.676;139.586;2023-04-26T02:59:15;99991.63;;;24.50;34.00
62847;BME280;49477;35.676;139.586;2023-04-26T03:01:44;99987.97;;;24.01;34.20
62847;BME280;49477;35.676;139.586;2023-04-26T03:04:14;99981.63;;;24.05;34.45
62847;BME280;49477;35.676;139.586;2023-04-26T03:06:43;99977.11;;;24.33;34.35
62847;BME280;49477;35.676;139.586;2023-04-26T03:09:13;99970.56;;;24.09;33.96
62847;BME280;49477;35.676;139.586;2023-04-26T03:11:42;99965.39;;;24.06;33.43
62847;BME280;49477;35.676;139.586;2023-04-26T03:14:12;99966.96;;;24.12;34.58
62847;BME280;49477;35.676;139.586;2023-04-26T03:16:42;99967.61;;;24.40;34.92
62847;BME280;49477;35.676;139.586;2023-04-26T03:19:12;99967.33;;;24.19;35.71
62847;BME280;49477;35.676;139.586;2023-04-26T03:21:41;99955.71;;;24.47;36.08
62847;BME280;49477;35.676;139.586;2023-04-26T03:24:10;99953.34;;;24.26;35.74
62847;BME280;49477;35.676;139.586;2023-04-26T03:26:40;99943.10;;;24.53;35.87
62847;BME280;49477;35.676;139.586;2023-04-26T03:29:09;99938.49;;;24.29;36.41
62847;BME280;49477;35.676;139.586;2023-04-26T03:31:39;99936.35;;;24.32;34.42
62847;BME280;49477;35.676;139.586;2023-04-26T03:34:08;99926.44;;;24.34;34.02
62847;BME280;49477;35.676;139.586;2023-04-26T03:36:38;99921.60;;;24.33;34.16
62847;BME280;49477;35.676;139.586;2023-04-26T03:39:07;99914.42;;;24.36;34.17
62847;BME280;49477;35.676;139.586;2023-04-26T03:41:37;99907.93;;;24.64;33.98
62847;BME280;49477;35.676;139.586;2023-04-26T03:44:06;99896.70;;;24.88;33.73
62847;BME280;49477;35.676;139.586;2023-04-26T03:46:36;99886.70;;;24.42;33.76
62847;BME280;49477;35.676;139.586;2023-04-26T03:49:05;99880.28;;;24.42;33.85
62847;BME280;49477;35.676;139.586;2023-04-26T03:51:35;99874.53;;;24.42;33.79
62847;BME280;49477;35.676;139.586;2023-04-26T03:54:04;99866.08;;;24.43;33.90
62847;BME280;49477;35.676;139.586;2023-04-26T03:56:34;99862.99;;;24.43;33.85
62847;BME280;49477;35.676;139.586;2023-04-26T03:59:03;99850.05;;;24.72;33.75
62847;BME280;49477;35.676;139.586;2023-04-26T04:01:33;99827.86;;;24.73;33.96
62847;BME280;49477;35.676;139.586;2023-04-26T04:04:02;99827.38;;;24.75;34.25
62847;BME280;49477;35.676;139.586;2023-04-26T04:06:32;99816.99;;;24.52;34.51
62847;BME280;49477;35.676;139.586;2023-04-26T04:09:01;99807.23;;;24.52;34.58
62847;BME280;49477;35.676;139.586;2023-04-26T04:11:31;99806.26;;;24.51;34.41
62847;BME280;49477;35.676;139.586;2023-04-26T04:14:00;99799.59;;;24.49;34.51
62847;BME280;49477;35.676;139.586;2023-04-26T04:16:30;99787.87;;;24.26;34.29
62847;BME280;49477;35.676;139.586;2023-04-26T04:18:59;99777.70;;;24.50;34.69
62847;BME280;49477;35.676;139.586;2023-04-26T04:21:29;99767.57;;;24.48;34.10
62847;BME280;49477;35.676;139.586;2023-04-26T04:23:58;99750.13;;;24.48;34.83
62847;BME280;49477;35.676;139.586;2023-04-26T04:26:28;99747.32;;;24.25;34.46
62847;BME280;49477;35.676;139.586;2023-04-26T04:28:58;99721.55;;;24.76;34.04
62847;BME280;49477;35.676;139.586;2023-04-26T04:31:27;99694.60;;;24.52;33.98
62847;BME280;49477;35.676;139.586;2023-04-26T04:33:56;99688.11;;;24.56;34.20
62847;BME280;49477;35.676;139.586;2023-04-26T04:36:26;99680.04;;;24.56;34.10
62847;BME280;49477;35.676;139.586;2023-04-26T04:38:55;99668.98;;;24.55;34.17
62847;BME280;49477;35.676;139.586;2023-04-26T04:41:26;99661.50;;;24.54;34.04
62847;BME280;49477;35.676;139.586;2023-04-26T04:43:54;99651.38;;;24.57;34.07
62847;BME280;49477;35.676;139.586;2023-04-26T04:46:24;99641.95;;;24.58;34.23
62847;BME280;49477;35.676;139.586;2023-04-26T04:48:53;99639.76;;;24.59;34.26
62847;BME280;49477;35.676;139.586;2023-04-26T04:51:23;99633.50;;;24.88;34.50
62847;BME280;49477;35.676;139.586;2023-04-26T04:53:53;99625.90;;;24.63;34.50
62847;BME280;49477;35.676;139.586;2023-04-26T04:56:22;99610.29;;;24.65;34.30
62847;BME280;49477;35.676;139.586;2023-04-26T04:58:52;99612.71;;;24.64;34.59
62847;BME280;49477;35.676;139.586;2023-04-26T05:01:21;99607.39;;;24.65;34.63
62847;BME280;49477;35.676;139.586;2023-04-26T05:03:51;99599.81;;;24.64;34.71
62847;BME280;49477;35.676;139.586;2023-04-26T05:06:20;99586.93;;;24.65;34.81
62847;BME280;49477;35.676;139.586;2023-04-26T05:08:50;99578.41;;;24.66;34.85
62847;BME280;49477;35.676;139.586;2023-04-26T05:11:19;99578.31;;;24.68;34.72
62847;BME280;49477;35.676;139.586;2023-04-26T05:13:49;99573.64;;;24.71;34.80
62847;BME280;49477;35.676;139.586;2023-04-26T05:16:18;99561.94;;;24.73;34.68
62847;BME280;49477;35.676;139.586;2023-04-26T05:18:48;99571.18;;;24.74;35.29
62847;BME280;49477;35.676;139.586;2023-04-26T05:21:17;99559.73;;;24.76;35.96
62847;BME280;49477;35.676;139.586;2023-04-26T05:23:47;99564.62;;;24.77;35.47
62847;BME280;49477;35.676;139.586;2023-04-26T05:26:17;99566.36;;;24.80;35.76
62847;BME280;49477;35.676;139.586;2023-04-26T05:28:47;99562.76;;;24.80;35.04
62847;BME280;49477;35.676;139.586;2023-04-26T05:31:16;99552.09;;;24.83;36.38
62847;BME280;49477;35.676;139.586;2023-04-26T05:33:46;99539.53;;;24.61;36.00
62847;BME280;49477;35.676;139.586;2023-04-26T05:36:15;99536.17;;;24.83;34.73
62847;BME280;49477;35.676;139.586;2023-04-26T05:38:44;99530.99;;;24.84;34.51
62847;BME280;49477;35.676;139.586;2023-04-26T05:41:14;99515.62;;;24.87;35.42
62847;BME280;49477;35.676;139.586;2023-04-26T05:43:44;99525.39;;;24.64;34.74
62847;BME280;49477;35.676;139.586;2023-04-26T05:46:14;99523.06;;;24.70;34.21
62847;BME280;49477;35.676;139.586;2023-04-26T05:48:43;99521.90;;;24.92;34.61
62847;BME280;49477;35.676;139.586;2023-04-26T05:51:13;99524.38;;;24.91;34.27
62847;BME280;49477;35.676;139.586;2023-04-26T05:53:42;99514.46;;;24.90;34.39
62847;BME280;49477;35.676;139.586;2023-04-26T05:56:12;99508.57;;;24.85;34.14
62847;BME280;49477;35.676;139.586;2023-04-26T05:58:41;99501.01;;;24.83;34.12
62847;BME280;49477;35.676;139.586;2023-04-26T06:01:11;99493.34;;;24.80;34.28
62847;BME280;49477;35.676;139.586;2023-04-26T06:03:40;99494.94;;;24.76;34.34
62847;BME280;49477;35.676;139.586;2023-04-26T06:06:10;99487.04;;;24.73;34.47
62847;BME280;49477;35.676;139.586;2023-04-26T06:08:40;99490.08;;;24.73;34.17
62847;BME280;49477;35.676;139.586;2023-04-26T06:11:10;99499.03;;;24.70;34.18
62847;BME280;49477;35.676;139.586;2023-04-26T06:13:39;99499.12;;;24.46;34.09
62847;BME280;49477;35.676;139.586;2023-04-26T06:16:09;99506.39;;;24.66;33.96
62847;BME280;49477;35.676;139.586;2023-04-26T06:18:38;99493.42;;;24.64;34.13
62847;BME280;49477;35.676;139.586;2023-04-26T06:21:08;99494.98;;;24.62;34.26
62847;BME280;49477;35.676;139.586;2023-04-26T06:23:37;99504.15;;;24.59;34.80
62847;BME280;49477;35.676;139.586;2023-04-26T06:26:07;99501.63;;;24.54;34.42
62847;BME280;49477;35.676;139.586;2023-04-26T06:28:36;99510.23;;;24.51;34.32
62847;BME280;49477;35.676;139.586;2023-04-26T06:31:06;99509.44;;;24.29;35.04
62847;BME280;49477;35.676;139.586;2023-04-26T06:33:35;99513.90;;;24.51;34.29
62847;BME280;49477;35.676;139.586;2023-04-26T06:36:06;99503.51;;;24.46;34.28
62847;BME280;49477;35.676;139.586;2023-04-26T06:38:39;99506.48;;;24.47;34.31
62847;BME280;49477;35.676;139.586;2023-04-26T06:41:08;99513.50;;;24.47;34.28
62847;BME280;49477;35.676;139.586;2023-04-26T06:43:38;99502.15;;;24.46;34.41
62847;BME280;49477;35.676;139.586;2023-04-26T06:46:08;99505.91;;;24.46;34.27
62847;BME280;49477;35.676;139.586;2023-04-26T06:48:37;99504.81;;;24.45;34.74
62847;BME280;49477;35.676;139.586;2023-04-26T06:51:07;99507.92;;;24.45;34.30
62847;BME280;49477;35.676;139.586;2023-04-26T06:53:36;99520.62;;;24.41;34.62
62847;BME280;49477;35.676;139.586;2023-04-26T06:56:06;99535.13;;;24.39;34.97
62847;BME280;49477;35.676;139.586;2023-04-26T06:58:35;99549.99;;;24.38;34.70
62847;BME280;49477;35.676;139.586;2023-04-26T07:01:05;99564.78;;;24.35;35.03
62847;BME280;49477;35.676;139.586;2023-04-26T07:03:34;99564.98;;;24.33;35.89
62847;BME280;49477;35.676;139.586;2023-04-26T07:06:04;99570.48;;;24.32;35.22
62847;BME280;49477;35.676;139.586;2023-04-26T07:08:33;99570.77;;;24.20;36.70
62847;BME280;49477;35.676;139.586;2023-04-26T07:11:04;99582.31;;;24.72;36.06
62847;BME280;49477;35.676;139.586;2023-04-26T07:13:37;99591.33;;;24.16;36.71
62847;BME280;49477;35.676;139.586;2023-04-26T07:16:07;99580.25;;;24.53;37.09
62847;BME280;49477;35.676;139.586;2023-04-26T07:18:36;99595.16;;;24.05;36.89
62847;BME280;49477;35.676;139.586;2023-04-26T07:21:06;99587.95;;;24.06;36.91
62847;BME280;49477;35.676;139.586;2023-04-26T07:23:35;99597.06;;;24.03;36.87
62847;BME280;49477;35.676;139.586;2023-04-26T07:26:05;99599.66;;;23.99;37.05
62847;BME280;49477;35.676;139.586;2023-04-26T07:28:34;99597.44;;;24.23;37.12
62847;BME280;49477;35.676;139.586;2023-04-26T07:31:04;99599.93;;;24.40;37.33
62847;BME280;49477;35.676;139.586;2023-04-26T07:33:33;99592.20;;;24.14;37.34
62847;BME280;49477;35.676;139.586;2023-04-26T07:36:03;99588.58;;;24.36;37.10
62847;BME280;49477;35.676;139.586;2023-04-26T07:38:32;99578.20;;;24.34;37.28
62847;BME280;49477;35.676;139.586;2023-04-26T07:41:02;99570.96;;;24.07;37.42
62847;BME280;49477;35.676;139.586;2023-04-26T07:43:31;99577.73;;;24.00;37.87
62847;BME280;49477;35.676;139.586;2023-04-26T07:46:01;99593.71;;;24.12;37.92
62847;BME280;49477;35.676;139.586;2023-04-26T07:48:31;99570.07;;;24.17;37.64
62847;BME280;49477;35.676;139.586;2023-04-26T07:51:08;99563.16;;;23.71;37.06
62847;BME280;49477;35.676;139.586;2023-04-26T07:53:38;99551.50;;;24.20;37.05
62847;BME280;49477;35.676;139.586;2023-04-26T07:56:08;99547.55;;;24.18;36.98
62847;BME280;49477;35.676;139.586;2023-04-26T07:58:38;99539.86;;;23.96;36.94
62847;BME280;49477;35.676;139.586;2023-04-26T08:01:07;99551.44;;;24.12;37.14
62847;BME280;49477;35.676;139.586;2023-04-26T08:03:36;99553.96;;;23.64;37.17
62847;BME280;49477;35.676;139.586;2023-04-26T08:06:06;99556.83;;;24.14;36.72
62847;BME280;49477;35.676;139.586;2023-04-26T08:08:35;99569.35;;;24.10;36.84
62847;BME280;49477;35.676;139.586;2023-04-26T08:11:08;99574.23;;;23.58;37.09
62847;BME280;49477;35.676;139.586;2023-04-26T08:13:37;99567.83;;;23.79;37.38
62847;BME280;49477;35.676;139.586;2023-04-26T08:16:07;99574.71;;;24.04;37.27
62847;BME280;49477;35.676;139.586;2023-04-26T08:18:36;99575.09;;;24.06;37.17
62847;BME280;49477;35.676;139.586;2023-04-26T08:21:06;99569.62;;;23.87;36.69
62847;BME280;49477;35.676;139.586;2023-04-26T08:23:35;99575.15;;;23.88;36.72
62847;BME280;49477;35.676;139.586;2023-04-26T08:26:04;99579.40;;;23.90;36.52
62847;BME280;49477;35.676;139.586;2023-04-26T08:28:34;99591.12;;;24.13;36.59
62847;BME280;49477;35.676;139.586;2023-04-26T08:31:04;99586.42;;;23.95;36.57
62847;BME280;49477;35.676;139.586;2023-04-26T08:33:33;99583.54;;;24.16;36.59
62847;BME280;49477;35.676;139.586;2023-04-26T08:36:03;99589.34;;;24.15;36.71
62847;BME280;49477;35.676;139.586;2023-04-26T08:38:32;99589.28;;;24.13;36.64
62847;BME280;49477;35.676;139.586;2023-04-26T08:41:02;99586.03;;;24.16;36.69
62847;BME280;49477;35.676;139.586;2023-04-26T08:43:34;99574.29;;;23.96;36.55
62847;BME280;49477;35.676;139.586;2023-04-26T08:46:09;99560.93;;;23.96;36.36
62847;BME280;49477;35.676;139.586;2023-04-26T08:48:40;99576.92;;;24.19;36.37
62847;BME280;49477;35.676;139.586;2023-04-26T08:51:13;99580.56;;;24.19;36.39
62847;BME280;49477;35.676;139.586;2023-04-26T08:53:43;99578.41;;;24.21;36.18
62847;BME280;49477;35.676;139.586;2023-04-26T08:56:13;99574.92;;;24.21;36.12
62847;BME280;49477;35.676;139.586;2023-04-26T08:58:42;99579.40;;;23.70;36.13
62847;BME280;49477;35.676;139.586;2023-04-26T09:01:14;99585.13;;;24.21;36.27
62847;BME280;49477;35.676;139.586;2023-04-26T09:03:45;99584.89;;;24.19;35.96
62847;BME280;49477;35.676;139.586;2023-04-26T09:06:14;99590.16;;;23.97;35.91
62847;BME280;49477;35.676;139.586;2023-04-26T09:08:45;99592.85;;;24.21;35.87
62847;BME280;49477;35.676;139.586;2023-04-26T09:11:15;99590.64;;;24.21;35.94
62847;BME280;49477;35.676;139.586;2023-04-26T09:13:44;99596.85;;;24.21;35.87
62847;BME280;49477;35.676;139.586;2023-04-26T09:16:14;99615.86;;;24.20;35.96
62847;BME280;49477;35.676;139.586;2023-04-26T09:18:51;99616.26;;;24.23;35.63
62847;BME280;49477;35.676;139.586;2023-04-26T09:21:21;99616.50;;;24.21;35.78
62847;BME280;49477;35.676;139.586;2023-04-26T09:24:00;99622.70;;;24.20;35.74
62847;BME280;49477;35.676;139.586;2023-04-26T09:26:29;99632.42;;;23.73;35.64
62847;BME280;49477;35.676;139.586;2023-04-26T09:29:17;99636.89;;;23.75;35.59
62847;BME280;49477;35.676;139.586;2023-04-26T09:31:48;99627.75;;;24.25;35.57
62847;BME280;49477;35.676;139.586;2023-04-26T09:34:18;99632.59;;;24.24;35.86
62847;BME280;49477;35.676;139.586;2023-04-26T09:36:49;99648.82;;;24.06;35.61
62847;BME280;49477;35.676;139.586;2023-04-26T09:39:38;99643.18;;;23.78;35.81
62847;BME280;49477;35.676;139.586;2023-04-26T09:42:08;99639.52;;;24.25;36.12
62847;BME280;49477;35.676;139.586;2023-04-26T09:44:38;99646.50;;;23.79;35.92
62847;BME280;49477;35.676;139.586;2023-04-26T09:47:08;99639.28;;;24.06;35.81
62847;BME280;49477;35.676;139.586;2023-04-26T09:49:47;99629.68;;;24.27;35.77
62847;BME280;49477;35.676;139.586;2023-04-26T09:52:18;99632.81;;;24.04;35.91
62847;BME280;49477;35.676;139.586;2023-04-26T09:54:49;99639.90;;;24.27;35.90
62847;BME280;49477;35.676;139.586;2023-04-26T09:57:20;99641.33;;;24.04;35.77
62847;BME280;49477;35.676;139.586;2023-04-26T09:59:51;99643.52;;;24.05;35.88
62847;BME280;49477;35.676;139.586;2023-04-26T10:02:22;99648.45;;;24.20;36.20
62847;BME280;49477;35.676;139.586;2023-04-26T10:04:53;99656.95;;;23.97;35.88
62847;BME280;49477;35.676;139.586;2023-04-26T10:07:24;99667.85;;;23.96;35.91
62847;BME280;49477;35.676;139.586;2023-04-26T10:09:54;99664.71;;;23.71;35.90
62847;BME280;49477;35.676;139.586;2023-04-26T10:12:25;99671.64;;;24.24;35.85
62847;BME280;49477;35.676;139.586;2023-04-26T10:14:55;99672.83;;;24.22;36.07
62847;BME280;49477;35.676;139.586;2023-04-26T10:17:26;99677.52;;;23.98;35.75
62847;BME280;49477;35.676;139.586;2023-04-26T10:19:57;99672.53;;;23.70;35.86
62847;BME280;49477;35.676;139.586;2023-04-26T10:22:32;99682.52;;;23.69;35.96
62847;BME280;49477;35.676;139.586;2023-04-26T10:25:02;99682.52;;;24.23;35.77
62847;BME280;49477;35.676;139.586;2023-04-26T10:28:01;99691.89;;;23.96;35.79
62847;BME280;49477;35.676;139.586;2023-04-26T10:30:30;99689.74;;;24.24;35.64
62847;BME280;49477;35.676;139.586;2023-04-26T10:33:18;99694.48;;;24.47;35.64
62847;BME280;49477;35.676;139.586;2023-04-26T10:36:06;99697.18;;;24.17;35.89
62847;BME280;49477;35.676;139.586;2023-04-26T10:38:38;99700.99;;;24.15;35.85
62847;BME280;49477;35.676;139.586;2023-04-26T10:41:41;99708.68;;;24.19;35.63
62847;BME280;49477;35.676;139.586;2023-04-26T10:44:43;99712.62;;;23.81;35.88
62847;BME280;49477;35.676;139.586;2023-04-26T10:47:34;99714.81;;;24.12;35.61
62847;BME280;49477;35.676;139.586;2023-04-26T10:50:07;99706.59;;;23.92;35.52
62847;BME280;49477;35.676;139.586;2023-04-26T10:52:37;99708.86;;;23.49;35.50
62847;BME280;49477;35.676;139.586;2023-04-26T10:55:40;99713.69;;;24.10;35.14
62847;BME280;49477;35.676;139.586;2023-04-26T10:58:28;99719.89;;;23.86;35.12
62847;BME280;49477;35.676;139.586;2023-04-26T11:01:17;99726.43;;;24.12;34.97
62847;BME280;49477;35.676;139.586;2023-04-26T11:04:07;99737.15;;;24.16;34.88
62847;BME280;49477;35.676;139.586;2023-04-26T11:06:55;99747.23;;;24.18;35.15
62847;BME280;49477;35.676;139.586;2023-04-26T11:09:47;99750.99;;;23.89;35.15
62847;BME280;49477;35.676;139.586;2023-04-26T11:12:16;99758.66;;;23.98;35.36
62847;BME280;49477;35.676;139.586;2023-04-26T11:14:46;99757.64;;;24.00;35.39
62847;BME280;49477;35.676;139.586;2023-04-26T11:17:15;99763.86;;;24.20;35.48
62847;BME280;49477;35.676;139.586;2023-04-26T11:19:46;99774.81;;;24.01;35.29
62847;BME280;49477;35.676;139.586;2023-04-26T11:22:15;99771.72;;;24.25;35.40
62847;BME280;49477;35.676;139.586;2023-04-26T11:24:45;99779.21;;;23.65;35.49
62847;BME280;49477;35.676;139.586;2023-04-26T11:27:14;99776.01;;;23.67;35.25
62847;BME280;49477;35.676;139.586;2023-04-26T11:29:44;99783.12;;;23.90;35.12
62847;BME280;49477;35.676;139.586;2023-04-26T11:32:13;99785.40;;;23.84;35.05
62847;BME280;49477;35.676;139.586;2023-04-26T11:34:43;99789.80;;;24.09;34.99
62847;BME280;49477;35.676;139.586;2023-04-26T11:37:12;99791.69;;;24.08;34.82
62847;BME280;49477;35.676;139.586;2023-04-26T11:39:45;99803.83;;;24.06;35.15
62847;BME280;49477;35.676;139.586;2023-04-26T11:42:15;99804.13;;;23.86;34.75
62847;BME280;49477;35.676;139.586;2023-04-26T11:44:44;99818.05;;;24.13;34.59
62847;BME280;49477;35.676;139.586;2023-04-26T11:47:14;99812.23;;;23.95;34.59
62847;BME280;49477;35.676;139.586;2023-04-26T11:49:43;99807.14;;;23.68;34.39
62847;BME280;49477;35.676;139.586;2023-04-26T11:52:14;99810.43;;;23.95;34.11
62847;BME280;49477;35.676;139.586;2023-04-26T11:54:44;99829.24;;;23.95;33.87
62847;BME280;49477;35.676;139.586;2023-04-26T11:57:16;99833.00;;;23.95;33.95
62847;BME280;49477;35.676;139.586;2023-04-26T11:59:46;99828.13;;;23.69;33.85
62847;BME280;49477;35.676;139.586;2023-04-26T12:02:15;99824.94;;;24.17;33.84
62847;BME280;49477;35.676;139.586;2023-04-26T12:04:45;99836.17;;;24.13;33.60
62847;BME280;49477;35.676;139.586;2023-04-26T12:07:18;99852.33;;;23.99;33.24
62847;BME280;49477;35.676;139.586;2023-04-26T12:09:48;99845.09;;;23.75;33.37
62847;BME280;49477;35.676;139.586;2023-04-26T12:12:17;99850.14;;;24.00;33.60
62847;BME280;49477;35.676;139.586;2023-04-26T12:14:47;99856.52;;;23.81;33.27
62847;BME280;49477;35.676;139.586;2023-04-26T12:17:17;99861.77;;;23.99;33.32
62847;BME280;49477;35.676;139.586;2023-04-26T12:19:50;99863.24;;;23.98;33.36
62847;BME280;49477;35.676;139.586;2023-04-26T12:22:21;99871.92;;;23.97;33.21
62847;BME280;49477;35.676;139.586;2023-04-26T12:24:59;99865.86;;;23.79;33.30
62847;BME280;49477;35.676;139.586;2023-04-26T12:27:32;99867.79;;;24.01;33.35
62847;BME280;49477;35.676;139.586;2023-04-26T12:30:01;99879.17;;;23.80;33.31
62847;BME280;49477;35.676;139.586;2023-04-26T12:32:31;99890.40;;;23.97;32.88
62847;BME280;49477;35.676;139.586;2023-04-26T12:35:01;99887.06;;;24.01;33.40
62847;BME280;49477;35.676;139.586;2023-04-26T12:37:30;99887.15;;;23.50;33.16
62847;BME280;49477;35.676;139.586;2023-04-26T12:39:59;99885.43;;;23.96;33.37
62847;BME280;49477;35.676;139.586;2023-04-26T12:42:29;99893.73;;;23.87;33.16
62847;BME280;49477;35.676;139.586;2023-04-26T12:44:58;99898.78;;;23.58;32.45
62847;BME280;49477;35.676;139.586;2023-04-26T12:47:28;99898.55;;;23.87;33.03
62847;BME280;49477;35.676;139.586;2023-04-26T12:49:57;99904.84;;;23.92;33.27
62847;BME280;49477;35.676;139.586;2023-04-26T12:52:29;99923.92;;;23.68;33.28
62847;BME280;49477;35.676;139.586;2023-04-26T12:54:58;99911.88;;;23.94;33.28
62847;BME280;49477;35.676;139.586;2023-04-26T12:57:28;99924.72;;;23.71;33.50